LPPTLPMA

Guest
Details From LPPT - Lisboa
To LPMA - Madeira
Flight Number -
Tags generated
Created
Modified
Stats Distance 522 nm / 966 km
Max Altitude 34,000 ft / 10,363 m
Waypoints 7
Social Downloads 2
Likes 0
Share VATSIM

Download

Looking for another format? Having issues loading an existing format? Contact us
Advertisement - Login to hide

Notes

Basic altitude profile: - Ascent Rate: 2500ft/min - Ascent Speed: 250kts - Cruise Altitude: 35000ft - Cruise Speed: 420kts - Descent Rate: 1500ft/min - Descent Speed: 250kts Options: - Use NATs: no - Use PACOTS: no - Use low airways: no - Use high airways: yes

Route

LPPT DEKUS UN745 SNT LPMA

ID Type Via Altitude Latitude Longitude Leg Dist Tot Dist Heading (true) Name
O LPPT APT - 0 ft / 0 m 38.77856˚ -9.13515˚ - 0 nm - Lisboa
DEKUS FIX - 20,800 ft / 6,340 m 38.01528˚ -10.00000˚ 61 nm 61 nm 222° / 221° -
NARTA FIX UN745 (AWY-HI) 34,000 ft / 10,363 m 36.05639˚ -12.55806˚ 169 nm 231 nm 227° / 225° -
GALPA FIX UN745 (AWY-HI) 30,900 ft / 9,418 m 34.39806˚ -14.73028˚ 145 nm 377 nm 228° / 226° -
RULET FIX UN745 (AWY-HI) 28,200 ft / 8,595 m 34.25167˚ -14.91556˚ 12 nm 389 nm 226° / 226° -
SNT VOR UN745 (AWY-HI) 18,500 ft / 5,639 m 33.09028˚ -16.35056˚ 100 nm 489 nm 226° / 225° PORTO SANTO VOR-DME
O LPMA APT - 0 ft / 0 m 32.69770˚ -16.77445˚ 31 nm 521 nm 222° / 222° Madeira

Altitude Profile

Advertisement - Login to hide

Weather


0- 5 10 15 20 25 30 35+ Temperature / ° C

Clouds and Precipitation
Forecast for 2017-12-18 06:00 UTC. Updated 12 minutes ago

Ground ~20,000 ft ~40,000 ft Winds

LPPT

Details ICAO LPPT (LIS)
Name Lisboa
Region Portugal
Timezone Europe/Lisbon (UTC+0.0)
Stats Elevation 374 ft / 114 m (AMSL)
Location 38.778559° -9.135146°
Runways 2
Magnetic Variation 2.363° W

METAR

LPPT 180530Z 04006KT CAVOK 06/01 Q1032

Decode

TAF

TAF LPPT 172300Z 1800/1906 03005KT CAVOK BECMG 1818/1821 35005KT

Decode

Departure Runways

ID Width Length Bearing (true) Bearing (mag) Surface Threshold Offset Overrun Length
03 148 ft / 45 m 12,518 ft / 3,815 m 22.70° 25.06° Asphalt 296 ft / 90 m 0 ft / 0 m
17 148 ft / 45 m 7,922 ft / 2,415 m 168.38° 170.74° Asphalt 0 ft / 0 m 0 ft / 0 m
21 148 ft / 45 m 12,518 ft / 3,815 m 202.72° 205.08° Asphalt 1,969 ft / 600 m 0 ft / 0 m
35 148 ft / 45 m 7,922 ft / 2,415 m 348.38° 350.74° Asphalt 492 ft / 150 m 0 ft / 0 m

LPMA

Details ICAO LPMA (FNC)
Name Madeira
Region Portugal
Timezone Atlantic/Madeira (UTC+0.0)
Stats Elevation 192 ft / 59 m (AMSL)
Location 32.697704° -16.774449°
Runways 1
Magnetic Variation 4.981° W

METAR

LPMA 180530Z 01009KT 9999 BKN015 17/09 Q1028

Decode

TAF

TAF LPMA 172300Z 1800/1824 02013KT 9999 SCT015 SCT030 TEMPO 1800/1812 BKN015

Decode

Destination Runways

ID Width Length Bearing (true) Bearing (mag) Surface Threshold Offset Overrun Length
05 141 ft / 43 m 8,683 ft / 2,647 m 42.98° 47.96° Asphalt 472 ft / 144 m 0 ft / 0 m
23 141 ft / 43 m 8,683 ft / 2,647 m 222.99° 227.97° Asphalt 466 ft / 142 m 0 ft / 0 m

Popular Alternatives